Aérodrome :
LOGIN :

S'inscrire | Disclaimer

   EN    FR    IT 

 










Légende :    VFR   VFR Marginal   IFR   IFR Intensif   IFR Très Intensif
Visi : 
Plafond : 
>= 8 km
>= 3000ft
5 à 8 km
1000 à 3000 ft
1500m à 5 km
500 à 1000 ft
800 à 1500m
200 à 500 ft
< 800m
< 200 ft
Symboles :   Orages  Brouillard  Fortes neiges  Fortes précipitations  Vent > 20 kt
SIGMETs :   Divers  Orages  Givrage  Turbulence  Onde Orograph.  Cendres Volcan.







- Altitude de l'aérodrome : 622 ft
- Code IATA : BRS
- Voir les cartes d'approche


EGGD - Bristol Int.

DERNIER METAR :
  • 250750Z AUTO 34010KT 9999 NCD 07/01 Q1032

METARs EXPIRÉS :
  • 250720Z AUTO 33007KT 9999 NCD 06/01 Q1032
  • 250650Z AUTO 34006KT 310V030 9999 SCT047 06/01 Q1032
  • 250620Z AUTO 34008KT 310V020 9999 FEW030 06/02 Q1031
  • 250550Z AUTO 33006KT 9999 SCT043 06/02 Q1031
  • 250520Z AUTO 33009KT 9999 FEW026 BKN031 OVC044 07/02 Q1031

TAF TAF EGGD
Valide du 25 à 06h jusqu'au 26 à 06h UTC


250502Z 2506/2606 35010KT 9999 SCT035
BECMG 2516/2519 VRB04KT
ATIS : +44 1275 473 666
Pas de NOTAMs connus pour ce terrain.
1 SIGMET publié pour la FIR London (EGTT) :
 
Turbulence forte
EGTT SIGMET 02 VALID 250600/251000 EGRR
EGTT LONDON FIR SEV TURB FCST NE OF LINE N5500 E00153 - N5309 E00324 SFC/FL060 STNR WKN=



MET'MAP, la Météo Aéronautique d'un coup d'oeil ! - Copyright ORBIFLY Décembre 2007 - Disclaimer

ORBIFLY MET'MAP TEAM :

Programmation & Développement : Alexandra Zaïnal
Conception & Développement : Baudouin d'Aumeries
Co-Programmation & Développement : Marc-Olivier Méhu
Soutien technique & logistique : Manuel Goepfert

Contact : metmap@orbifly.com




SOURCES & CREDITS :

   NOAA